Time;durP1;ratioP1;P1;durP2;ratioP2;P2;SDS_P1;SDS_P2;PMS_P1;PMS_P2;Temp;Humidity;BMP_temperature;BMP_pressure;BME280_temperature;BME280_humidity;BME280_pressure;Samples;Min_cycle;Max_cycle;Signal;HPM_P1;HPM_P2
2021/03/23 00:00:51;;;;;;;3.92;0.60;;;4.60;99.90;;;;;;4987056;28;20048;-80
2021/03/23 00:03:23;;;;;;;0.68;0.47;;;4.40;99.90;;;;;;4986763;28;20406;-80
2021/03/23 00:05:49;;;;;;;0.90;0.85;;;4.60;99.90;;;;;;4987085;28;20045;-80
2021/03/23 00:08:38;;;;;;;0.20;0.20;;;4.70;99.90;;;;;;4988344;28;20026;-80
2021/03/23 00:11:17;;;;;;;0.15;0.15;;;4.50;99.90;;;;;;4987311;28;20038;-81
2021/03/23 00:13:45;;;;;;;0.45;0.45;;;4.30;99.90;;;;;;4988434;28;20026;-81
2021/03/23 00:16:12;;;;;;;0.10;0.10;;;4.70;99.90;;;;;;4988353;28;20077;-81
2021/03/23 00:18:39;;;;;;;0.45;0.45;;;4.60;99.90;;;;;;4989676;28;20022;-81
2021/03/23 00:21:06;;;;;;;0.20;0.20;;;4.60;99.90;;;;;;4989439;28;20113;-80
2021/03/23 00:23:32;;;;;;;0.20;0.20;;;4.70;99.90;;;;;;4988634;28;20718;-81
2021/03/23 00:25:58;;;;;;;0.32;0.32;;;4.50;99.90;;;;;;4989565;28;20034;-81
2021/03/23 00:28:24;;;;;;;0.43;0.43;;;4.20;99.90;;;;;;4981782;28;20073;-80
2021/03/23 00:30:53;;;;;;;0.20;0.20;;;4.40;99.90;;;;;;4989834;28;20022;-80
2021/03/23 00:33:20;;;;;;;0.50;0.50;;;4.20;99.90;;;;;;4986913;28;20305;-80
2021/03/23 00:35:46;;;;;;;0.30;0.30;;;3.60;99.90;;;;;;4989378;28;20031;-80
2021/03/23 00:38:12;;;;;;;0.10;0.10;;;3.50;99.90;;;;;;4984744;28;20061;-80
2021/03/23 00:40:38;;;;;;;0.32;0.32;;;3.80;99.90;;;;;;4982856;28;20105;-80
2021/03/23 00:43:06;;;;;;;0.20;0.20;;;3.80;99.90;;;;;;4982745;28;20490;-81
2021/03/23 00:45:36;;;;;;;0.80;0.57;;;3.80;99.90;;;;;;4985717;28;20829;-81
2021/03/23 00:48:02;;;;;;;0.25;0.25;;;3.80;99.90;;;;;;4983596;28;20022;-80
2021/03/23 00:50:27;;;;;;;0.25;0.25;;;4.00;99.90;;;;;;4986658;28;20034;-80
2021/03/23 00:52:53;;;;;;;0.20;0.20;;;4.10;99.90;;;;;;4987539;28;20085;-80
2021/03/23 00:55:19;;;;;;;0.22;0.22;;;3.90;99.90;;;;;;4988308;28;20100;-80
2021/03/23 00:57:45;;;;;;;0.65;0.65;;;3.90;99.90;;;;;;4980134;28;20062;-80
2021/03/23 01:00:15;;;;;;;0.45;0.38;;;3.70;99.90;;;;;;4987827;28;20870;-81
2021/03/23 01:02:43;;;;;;;0.10;0.10;;;4.00;99.90;;;;;;4982412;28;20031;-81
2021/03/23 01:05:09;;;;;;;0.15;0.15;;;3.90;99.90;;;;;;4988616;28;20545;-81
2021/03/23 01:07:35;;;;;;;0.20;0.20;;;3.70;99.90;;;;;;4979170;28;20025;-82
2021/03/23 01:10:04;;;;;;;0.13;0.13;;;3.70;99.90;;;;;;4989203;28;20034;-80
2021/03/23 01:12:30;;;;;;;0.88;0.85;;;3.80;99.90;;;;;;4986287;28;20052;-81
2021/03/23 01:14:56;;;;;;;0.75;0.50;;;3.70;99.90;;;;;;4987882;28;20626;-80
2021/03/23 01:17:22;;;;;;;0.20;0.20;;;3.80;99.90;;;;;;4980701;28;20125;-81
2021/03/23 01:19:48;;;;;;;0.30;0.30;;;3.70;99.90;;;;;;4987833;28;20034;-80
2021/03/23 01:22:13;;;;;;;0.30;0.30;;;3.60;99.90;;;;;;4989373;28;20093;-80
2021/03/23 01:24:39;;;;;;;0.10;0.10;;;3.70;99.90;;;;;;4988458;28;20038;-81
2021/03/23 01:27:06;;;;;;;0.13;0.13;;;3.80;99.90;;;;;;4988870;28;20040;-80
2021/03/23 01:29:31;;;;;;;0.10;0.10;;;3.70;99.90;;;;;;4988798;28;20769;-81
2021/03/23 01:31:58;;;;;;;4.93;1.75;;;3.40;99.90;;;;;;4986237;28;20041;-80
2021/03/23 01:34:24;;;;;;;0.45;0.45;;;3.30;99.90;;;;;;4989129;28;20041;-81
2021/03/23 01:36:50;;;;;;;0.20;0.20;;;2.90;99.90;;;;;;4983956;28;20440;-81
2021/03/23 01:39:16;;;;;;;0.20;0.20;;;2.90;99.90;;;;;;4985759;28;20038;-81
2021/03/23 01:41:42;;;;;;;0.93;0.90;;;3.00;99.90;;;;;;4985422;28;20433;-81
2021/03/23 01:44:08;;;;;;;0.70;0.70;;;2.90;99.90;;;;;;4988214;28;20022;-81
2021/03/23 01:46:39;;;;;;;14.38;1.85;;;3.00;99.90;;;;;;4988573;28;20026;-81
2021/03/23 01:49:10;;;;;;;0.10;0.10;;;2.80;99.90;;;;;;4989024;28;21281;-80
2021/03/23 01:51:36;;;;;;;1.55;1.38;;;2.90;99.90;;;;;;4987142;28;20425;-80
2021/03/23 01:54:10;;;;;;;0.10;0.10;;;3.00;99.90;;;;;;4987734;28;20042;-80
2021/03/23 01:56:36;;;;;;;0.30;0.30;;;2.90;99.90;;;;;;4988387;28;20109;-81
2021/03/23 01:59:03;;;;;;;0.10;0.10;;;2.70;99.90;;;;;;4988863;28;20034;-81
2021/03/23 02:01:30;;;;;;;0.17;0.17;;;2.80;99.90;;;;;;4982646;28;20030;-80
2021/03/23 02:03:57;;;;;;;0.20;0.20;;;3.10;99.90;;;;;;4987998;28;20023;-81
2021/03/23 02:06:31;;;;;;;;;;;2.90;99.90;;;;;;4987940;28;20022;-81
2021/03/23 02:08:58;;;;;;;0.55;0.55;;;3.30;99.90;;;;;;4991487;28;19929;-81
2021/03/23 02:11:25;;;;;;;3.00;1.55;;;3.30;99.90;;;;;;4992597;28;20038;-81
2021/03/23 02:13:53;;;;;;;1.60;0.85;;;3.30;99.90;;;;;;4990954;28;20030;-81
2021/03/23 02:16:19;;;;;;;0.10;0.10;;;3.30;99.90;;;;;;4991103;28;20046;-80
2021/03/23 02:18:45;;;;;;;0.10;0.10;;;3.50;99.90;;;;;;4992073;28;20034;-80
2021/03/23 02:21:14;;;;;;;0.15;0.15;;;3.10;99.90;;;;;;4992434;28;20031;-81
2021/03/23 02:23:42;;;;;;;1.02;0.98;;;3.10;99.90;;;;;;4990274;28;20014;-80
2021/03/23 02:26:11;;;;;;;0.43;0.43;;;3.00;99.90;;;;;;4981073;28;20403;-81
2021/03/23 02:29:02;;;;;;;0.10;0.10;;;3.00;99.90;;;;;;4992202;28;20018;-81
2021/03/23 02:31:29;;;;;;;0.17;0.17;;;3.10;99.90;;;;;;4990123;28;20022;-81
2021/03/23 02:33:56;;;;;;;0.20;0.20;;;3.10;99.90;;;;;;4991322;28;20049;-81
2021/03/23 02:36:23;;;;;;;0.10;0.10;;;3.00;99.90;;;;;;4989971;28;20026;-81
2021/03/23 02:38:49;;;;;;;22.33;1.75;;;3.10;99.90;;;;;;4991409;28;20456;-81
2021/03/23 02:41:15;;;;;;;0.20;0.20;;;3.10;99.90;;;;;;4980849;28;20025;-81
2021/03/23 02:43:41;;;;;;;0.20;0.20;;;3.00;99.90;;;;;;4990630;28;20577;-81
2021/03/23 02:46:07;;;;;;;0.38;0.38;;;3.00;99.90;;;;;;4989942;28;20062;-80
2021/03/23 02:48:33;;;;;;;0.10;0.10;;;3.00;99.90;;;;;;4992157;28;20022;-81
2021/03/23 02:50:59;;;;;;;3.40;0.82;;;3.00;99.90;;;;;;4991959;28;20433;-81
2021/03/23 02:53:25;;;;;;;0.30;0.30;;;2.80;99.90;;;;;;4991392;28;20101;-81
2021/03/23 02:55:51;;;;;;;0.90;0.90;;;2.80;99.90;;;;;;4991982;28;20357;-81
2021/03/23 02:58:17;;;;;;;0.20;0.20;;;2.80;99.90;;;;;;4991416;28;20035;-80
2021/03/23 03:00:43;;;;;;;0.50;0.50;;;2.60;99.90;;;;;;4992012;28;20429;-81
2021/03/23 03:03:10;;;;;;;0.13;0.13;;;2.70;99.90;;;;;;4991633;28;20019;-80
2021/03/23 03:05:35;;;;;;;0.10;0.10;;;2.60;99.90;;;;;;4990420;28;20266;-81
2021/03/23 03:08:01;;;;;;;8.68;1.48;;;2.70;99.90;;;;;;4991715;28;20796;-81
2021/03/23 03:10:27;;;;;;;0.77;0.77;;;2.70;99.90;;;;;;4991383;28;20038;-81
2021/03/23 03:12:53;;;;;;;1.50;1.40;;;2.50;99.90;;;;;;4991169;28;20061;-80
2021/03/23 03:15:19;;;;;;;0.20;0.20;;;2.60;99.90;;;;;;4989185;28;20096;-81
2021/03/23 03:17:45;;;;;;;0.10;0.10;;;2.70;99.90;;;;;;4990945;28;20030;-80
2021/03/23 03:20:12;;;;;;;0.80;0.60;;;2.80;99.90;;;;;;4991190;28;20034;-81
2021/03/23 03:22:39;;;;;;;0.40;0.40;;;2.70;99.90;;;;;;4991073;28;20057;-81
2021/03/23 03:25:06;;;;;;;0.10;0.10;;;2.60;99.90;;;;;;4991103;28;20101;-81
2021/03/23 03:27:32;;;;;;;0.10;0.10;;;2.60;99.90;;;;;;4989946;28;20068;-81
2021/03/23 03:29:58;;;;;;;0.10;0.10;;;2.50;99.90;;;;;;4991327;28;20091;-80
2021/03/23 03:32:23;;;;;;;1.95;0.80;;;2.50;99.90;;;;;;4988751;28;20069;-81
2021/03/23 03:34:49;;;;;;;0.20;0.20;;;2.50;99.90;;;;;;4991179;28;20069;-81
2021/03/23 03:37:15;;;;;;;0.10;0.10;;;2.60;99.90;;;;;;4990593;28;20026;-81
2021/03/23 03:39:41;;;;;;;0.68;0.68;;;2.80;99.90;;;;;;4990235;28;20038;-81
2021/03/23 03:42:07;;;;;;;0.70;0.70;;;2.90;99.90;;;;;;4989612;28;20038;-81
2021/03/23 03:44:33;;;;;;;0.10;0.10;;;2.70;99.90;;;;;;4988289;28;20018;-80
2021/03/23 03:46:59;;;;;;;0.40;0.40;;;2.70;99.90;;;;;;4991016;28;20035;-81
2021/03/23 03:49:25;;;;;;;0.40;0.40;;;2.40;99.90;;;;;;4991109;28;20646;-81
2021/03/23 03:51:51;;;;;;;1.08;1.08;;;2.20;99.90;;;;;;4990737;28;20061;-81
2021/03/23 03:54:16;;;;;;;0.10;0.10;;;2.00;99.90;;;;;;4990443;28;20034;-81
2021/03/23 03:56:42;;;;;;;0.10;0.10;;;1.90;99.90;;;;;;4990052;28;20457;-81
2021/03/23 03:59:08;;;;;;;0.17;0.17;;;1.90;99.90;;;;;;4990438;28;20030;-81
2021/03/23 04:01:34;;;;;;;0.30;0.30;;;1.80;99.90;;;;;;4989788;28;20101;-81
2021/03/23 04:03:59;;;;;;;0.20;0.20;;;2.10;99.90;;;;;;4990884;28;20510;-80
2021/03/23 04:06:25;;;;;;;0.70;0.70;;;2.30;99.90;;;;;;4989799;28;20514;-81
2021/03/23 04:08:51;;;;;;;0.13;0.13;;;2.40;99.90;;;;;;4985220;28;20112;-80
2021/03/23 04:11:17;;;;;;;1.23;0.95;;;2.30;99.90;;;;;;4990302;28;20026;-80
2021/03/23 04:13:42;;;;;;;1.08;0.98;;;2.30;99.90;;;;;;4989597;28;20031;-80
2021/03/23 04:16:10;;;;;;;0.30;0.30;;;2.30;99.90;;;;;;4987671;28;20089;-80
2021/03/23 04:18:36;;;;;;;0.10;0.10;;;2.20;99.90;;;;;;4989960;28;20023;-80
2021/03/23 04:21:03;;;;;;;0.95;0.90;;;2.30;99.90;;;;;;4990197;28;20030;-80
2021/03/23 04:23:35;;;;;;;0.20;0.20;;;2.40;99.90;;;;;;4989056;28;20029;-80
2021/03/23 04:26:02;;;;;;;0.65;0.65;;;2.40;99.90;;;;;;4988122;28;20581;-80
2021/03/23 04:28:28;;;;;;;0.65;0.65;;;2.50;99.90;;;;;;4989491;28;20034;-82
2021/03/23 04:30:55;;;;;;;0.47;0.47;;;2.30;99.90;;;;;;4988546;28;20033;-82
2021/03/23 04:33:23;;;;;;;0.98;0.55;;;2.20;99.90;;;;;;4989649;28;20454;-82
2021/03/23 04:35:53;;;;;;;0.20;0.20;;;1.90;99.90;;;;;;4989596;28;20034;-81
2021/03/23 04:38:31;;;;;;;0.25;0.25;;;1.90;99.90;;;;;;4987172;28;20030;-82
2021/03/23 04:40:59;;;;;;;1.08;0.73;;;1.90;99.90;;;;;;4988844;28;20062;-81
2021/03/23 04:43:34;;;;;;;0.20;0.20;;;2.00;99.90;;;;;;4988109;28;20838;-81
2021/03/23 04:46:01;;;;;;;0.35;0.35;;;1.90;99.90;;;;;;4989161;28;20693;-81
2021/03/23 04:48:27;;;;;;;1.02;1.02;;;1.90;99.90;;;;;;4987462;28;20027;-80
2021/03/23 04:50:53;;;;;;;1.38;1.27;;;1.90;99.90;;;;;;4987810;28;20182;-80
2021/03/23 04:53:24;;;;;;;1.75;1.65;;;1.90;99.90;;;;;;4988699;28;20797;-79
2021/03/23 04:55:51;;;;;;;0.43;0.43;;;1.70;99.90;;;;;;4984376;28;20395;-81
2021/03/23 04:58:18;;;;;;;0.10;0.10;;;1.60;99.90;;;;;;4989640;28;20030;-80
2021/03/23 05:00:44;;;;;;;0.10;0.10;;;1.40;99.90;;;;;;4989703;28;20038;-81
2021/03/23 05:03:15;;;;;;;0.60;0.60;;;1.60;99.90;;;;;;4989070;28;20109;-81
2021/03/23 05:05:40;;;;;;;0.40;0.40;;;1.50;99.90;;;;;;4989273;28;20034;-81
2021/03/23 05:08:06;;;;;;;0.20;0.20;;;1.40;99.90;;;;;;4988771;28;20031;-80
2021/03/23 05:10:32;;;;;;;0.52;0.52;;;1.60;99.90;;;;;;4988662;28;20102;-80
2021/03/23 05:12:58;;;;;;;0.17;0.17;;;1.40;99.90;;;;;;4989086;28;20453;-81
2021/03/23 05:15:24;;;;;;;0.40;0.40;;;1.40;99.90;;;;;;4988482;28;20030;-81
2021/03/23 05:17:49;;;;;;;3.13;2.05;;;1.20;99.90;;;;;;4988689;28;20527;-81
2021/03/23 05:20:15;;;;;;;0.30;0.30;;;1.30;99.90;;;;;;4986392;28;20414;-80
2021/03/23 05:22:41;;;;;;;1.55;1.15;;;1.30;99.90;;;;;;4989364;28;20026;-81
2021/03/23 05:25:08;;;;;;;0.10;0.10;;;1.40;99.90;;;;;;4987777;28;20562;-81
2021/03/23 05:27:34;;;;;;;7.13;1.63;;;1.40;99.90;;;;;;4988200;28;20716;-81
2021/03/23 05:29:59;;;;;;;0.20;0.20;;;1.30;99.90;;;;;;4988921;28;20109;-81
2021/03/23 05:32:25;;;;;;;0.10;0.10;;;1.30;99.90;;;;;;4987712;28;20088;-81
2021/03/23 05:34:51;;;;;;;0.40;0.40;;;1.50;99.90;;;;;;4988657;28;20026;-82
2021/03/23 05:37:17;;;;;;;0.10;0.10;;;1.30;99.90;;;;;;4988014;28;20108;-81
2021/03/23 05:39:42;;;;;;;0.52;0.52;;;1.30;99.90;;;;;;4988560;28;20049;-81
2021/03/23 05:42:52;;;;;;;0.30;0.30;;;1.30;99.90;;;;;;4988161;28;20036;-81
2021/03/23 05:45:33;;;;;;;0.10;0.10;;;1.20;99.90;;;;;;4969266;28;20042;-81
2021/03/23 05:48:25;;;;;;;0.57;0.57;;;1.10;99.90;;;;;;4988266;28;20530;-81
2021/03/23 05:51:02;;;;;;;0.50;0.50;;;1.30;99.90;;;;;;4989053;28;20023;-82
2021/03/23 05:53:36;;;;;;;;;;;1.30;99.90;;;;;;4987541;28;20030;-82
2021/03/23 05:56:03;;;;;;;0.17;0.17;;;1.30;99.90;;;;;;4987129;28;20401;-81
2021/03/23 05:58:33;;;;;;;0.20;0.20;;;1.40;99.90;;;;;;4988033;28;20494;-82
2021/03/23 06:01:07;;;;;;;0.40;0.40;;;1.40;99.90;;;;;;4983196;28;20026;-82
2021/03/23 06:03:33;;;;;;;0.40;0.40;;;1.30;99.90;;;;;;4985312;28;20033;-83
2021/03/23 06:06:36;;;;;;;0.20;0.20;;;1.30;99.90;;;;;;4988746;28;20022;-81
2021/03/23 06:09:02;;;;;;;0.30;0.30;;;1.50;99.90;;;;;;4983362;28;20030;-82
2021/03/23 06:11:46;;;;;;;0.40;0.40;;;1.80;99.90;;;;;;4988398;28;20746;-82
2021/03/23 06:14:29;;;;;;;0.30;0.30;;;2.00;99.90;;;;;;4985988;28;20034;-82
2021/03/23 06:17:20;;;;;;;0.20;0.20;;;2.50;99.90;;;;;;4988289;28;20100;-81
2021/03/23 06:20:04;;;;;;;2.83;1.20;;;2.80;99.90;;;;;;4987954;28;20045;-81
2021/03/23 06:22:53;;;;;;;0.10;0.10;;;3.00;99.90;;;;;;4993007;28;20029;-82
2021/03/23 06:25:41;;;;;;;3.05;2.53;;;3.30;99.90;;;;;;4988886;28;20022;-82
2021/03/23 06:28:31;;;;;;;0.47;0.47;;;3.70;99.90;;;;;;4990647;28;20022;-81
2021/03/23 06:31:03;;;;;;;0.10;0.10;;;3.90;99.90;;;;;;4993073;28;20046;-83
2021/03/23 06:33:30;;;;;;;0.10;0.10;;;4.00;99.90;;;;;;4995930;28;20280;-84
2021/03/23 06:35:58;;;;;;;;;;;4.20;99.90;;;;;;4987373;28;20761;-82
2021/03/23 06:38:34;;;;;;;0.20;0.20;;;4.40;99.90;;;;;;4986247;28;19914;-84
2021/03/23 06:41:12;;;;;;;0.10;0.10;;;4.70;99.90;;;;;;4987767;28;20029;-83
2021/03/23 06:43:40;;;;;;;0.45;0.45;;;4.90;99.90;;;;;;4985588;28;20026;-84
2021/03/23 06:46:32;;;;;;;0.10;0.10;;;4.90;99.90;;;;;;4986196;28;20088;-83
2021/03/23 06:49:12;;;;;;;0.15;0.15;;;5.30;99.90;;;;;;4988112;28;20053;-83
2021/03/23 06:52:00;;;;;;;0.20;0.20;;;5.40;99.90;;;;;;4988297;28;20469;-83
2021/03/23 06:54:30;;;;;;;0.47;0.25;;;5.80;99.90;;;;;;4985078;28;20031;-84
2021/03/23 06:57:06;;;;;;;0.22;0.22;;;5.70;99.90;;;;;;4989708;28;20045;-84
2021/03/23 06:59:44;;;;;;;0.30;0.30;;;5.90;99.90;;;;;;4991774;28;20034;-84
2021/03/23 07:02:36;;;;;;;0.05;0.05;;;6.20;99.90;;;;;;4989603;28;20409;-83
2021/03/23 07:05:26;;;;;;;2.30;1.13;;;6.70;99.90;;;;;;4984716;28;20045;-83
2021/03/23 07:08:02;;;;;;;0.38;0.38;;;6.60;99.90;;;;;;4981694;28;20033;-84
2021/03/23 07:10:35;;;;;;;0.20;0.20;;;6.40;99.90;;;;;;4987993;28;20462;-84
2021/03/23 07:13:01;;;;;;;3.03;1.20;;;7.10;99.90;;;;;;4987972;28;20402;-83
2021/03/23 07:15:28;;;;;;;0.10;0.10;;;7.30;99.90;;;;;;4988210;28;20018;-84
2021/03/23 07:18:11;;;;;;;6.65;0.73;;;7.50;99.90;;;;;;4982739;28;20096;-83
2021/03/23 07:20:40;;;;;;;0.05;0.05;;;8.10;99.90;;;;;;4990171;28;20364;-83
2021/03/23 07:23:23;;;;;;;0.45;0.45;;;8.20;99.90;;;;;;4990215;28;20541;-83
2021/03/23 07:25:49;;;;;;;1.27;0.65;;;8.10;99.90;;;;;;4990749;28;20085;-83
2021/03/23 07:28:36;;;;;;;0.00;0.00;;;8.40;99.90;;;;;;4990145;28;20026;-83
2021/03/23 07:31:22;;;;;;;4.57;1.65;;;9.00;99.90;;;;;;4990223;28;20517;-83
2021/03/23 07:34:29;;;;;;;0.05;0.05;;;8.70;99.90;;;;;;4986289;28;20030;-83
2021/03/23 07:37:04;;;;;;;0.43;0.43;;;9.10;99.90;;;;;;4984997;28;20030;-83
2021/03/23 07:39:43;;;;;;;0.45;0.45;;;9.40;99.90;;;;;;4987436;28;20407;-83
2021/03/23 07:42:33;;;;;;;0.05;0.05;;;9.40;99.90;;;;;;4988883;28;20037;-83
2021/03/23 07:45:29;;;;;;;0.17;0.17;;;9.50;99.90;;;;;;4980432;28;20044;-83
2021/03/23 07:48:03;;;;;;;0.45;0.45;;;9.60;99.90;;;;;;4989107;28;20026;-82
2021/03/23 07:50:35;;;;;;;0.20;0.20;;;10.40;99.90;;;;;;4989311;28;20586;-83
2021/03/23 07:53:22;;;;;;;0.30;0.30;;;11.30;99.90;;;;;;4990119;28;20562;-83
2021/03/23 07:55:51;;;;;;;0.15;0.15;;;11.30;99.90;;;;;;4983873;28;20507;-82
2021/03/23 07:58:40;;;;;;;0.57;0.57;;;11.60;99.90;;;;;;4980198;28;20066;-84
2021/03/23 08:01:41;;;;;;;0.85;0.75;;;12.00;99.90;;;;;;4985419;28;20851;-83
2021/03/23 08:04:16;;;;;;;0.00;0.00;;;12.20;99.90;;;;;;4984975;28;20121;-84
2021/03/23 08:07:19;;;;;;;0.40;0.30;;;12.30;99.90;;;;;;4989325;28;20084;-83
2021/03/23 08:09:59;;;;;;;0.47;0.47;;;11.80;99.90;;;;;;4987628;28;20138;-83
2021/03/23 08:12:44;;;;;;;1.27;0.75;;;12.90;99.90;;;;;;4985531;28;20429;-82
2021/03/23 08:15:32;;;;;;;1.40;0.70;;;12.70;99.90;;;;;;4981444;28;20693;-83
2021/03/23 08:18:44;;;;;;;0.50;0.50;;;13.20;99.90;;;;;;4988060;28;20073;-85
2021/03/23 08:21:18;;;;;;;0.10;0.10;;;12.40;99.90;;;;;;4978330;28;20045;-85
2021/03/23 08:23:59;;;;;;;0.77;0.77;;;13.40;99.90;;;;;;4986688;28;20121;-85
2021/03/23 08:26:34;;;;;;;0.10;0.10;;;13.00;99.90;;;;;;4986477;28;20112;-85
2021/03/23 08:29:12;;;;;;;1.25;0.30;;;13.60;99.90;;;;;;4988245;28;20026;-84
2021/03/23 08:31:53;;;;;;;0.25;0.25;;;14.10;99.90;;;;;;4989447;28;20056;-84
2021/03/23 08:34:34;;;;;;;1.02;0.88;;;14.90;99.90;;;;;;4989219;28;20053;-84
2021/03/23 08:37:21;;;;;;;0.20;0.20;;;14.00;99.90;;;;;;4982210;28;20102;-85
2021/03/23 08:39:53;;;;;;;0.88;0.88;;;14.80;99.90;;;;;;4985232;28;20529;-84
2021/03/23 08:42:23;;;;;;;0.68;0.68;;;15.20;99.90;;;;;;4989374;28;20046;-84
2021/03/23 08:45:03;;;;;;;0.30;0.30;;;15.90;99.90;;;;;;4989899;28;20061;-84
2021/03/23 08:47:44;;;;;;;0.30;0.25;;;15.80;99.90;;;;;;4983501;28;20022;-85
2021/03/23 08:50:21;;;;;;;13.25;0.50;;;15.00;99.90;;;;;;4988956;28;20088;-85
2021/03/23 08:52:52;;;;;;;0.10;0.10;;;15.20;99.90;;;;;;4987830;28;20034;-85
2021/03/23 08:55:33;;;;;;;0.25;0.25;;;16.60;99.90;;;;;;4983706;28;20106;-85
2021/03/23 08:58:08;;;;;;;1.88;0.80;;;17.60;99.90;;;;;;4987835;28;20034;-85
2021/03/23 09:00:38;;;;;;;0.20;0.20;;;16.50;99.90;;;;;;4984535;28;20552;-85
2021/03/23 09:03:10;;;;;;;0.13;0.13;;;19.60;99.90;;;;;;4989730;28;20026;-85
2021/03/23 09:05:57;;;;;;;0.60;0.60;;;19.20;99.90;;;;;;4990030;28;20022;-85
2021/03/23 09:08:43;;;;;;;0.10;0.10;;;18.20;99.90;;;;;;4989620;28;20054;-86
2021/03/23 09:11:14;;;;;;;0.17;0.17;;;17.90;99.90;;;;;;4989498;28;20022;-85
2021/03/23 09:13:39;;;;;;;0.00;0.00;;;18.70;99.90;;;;;;4988126;28;20133;-85
2021/03/23 09:16:38;;;;;;;0.10;0.10;;;18.00;99.90;;;;;;4988966;28;20129;-86
2021/03/23 09:19:08;;;;;;;0.17;0.17;;;17.90;99.90;;;;;;4989109;28;20023;-86
2021/03/23 09:21:56;;;;;;;0.20;0.20;;;18.90;99.90;;;;;;4988141;28;20053;-86
2021/03/23 09:24:34;;;;;;;0.10;0.10;;;20.10;99.90;;;;;;4987699;28;20022;-85
2021/03/23 09:27:08;;;;;;;1.20;0.73;;;22.00;99.90;;;;;;4989141;28;20081;-86
2021/03/23 09:29:47;;;;;;;1.05;1.05;;;21.30;99.90;;;;;;4989670;28;20464;-85
2021/03/23 09:32:24;;;;;;;0.10;0.10;;;24.60;99.90;;;;;;4987142;28;20030;-86
2021/03/23 09:35:08;;;;;;;3.00;1.17;;;23.90;99.90;;;;;;4978899;28;20022;-86
2021/03/23 09:37:49;;;;;;;0.17;0.17;;;25.30;99.90;;;;;;4989000;28;20479;-85
2021/03/23 09:40:18;;;;;;;0.35;0.30;;;21.50;99.90;;;;;;4989120;28;20565;-85
2021/03/23 09:42:50;;;;;;;0.52;0.52;;;21.80;99.90;;;;;;4987436;28;20026;-85
2021/03/23 09:45:37;;;;;;;0.52;0.52;;;22.00;99.90;;;;;;4988926;28;20045;-85
2021/03/23 09:48:12;;;;;;;0.25;0.20;;;21.70;99.90;;;;;;4987806;28;20030;-85
2021/03/23 09:50:57;;;;;;;0.80;0.47;;;20.70;99.90;;;;;;4989399;28;20026;-85
2021/03/23 09:53:28;;;;;;;0.03;0.03;;;20.10;99.90;;;;;;4988403;28;20025;-85
2021/03/23 09:56:03;;;;;;;0.80;0.38;;;18.90;99.90;;;;;;4987929;28;20025;-85
2021/03/23 09:58:29;;;;;;;9.20;2.65;;;20.60;99.90;;;;;;4988723;28;20031;-84
2021/03/23 10:01:10;;;;;;;1.10;1.00;;;22.40;99.90;;;;;;4988053;28;20158;-85
2021/03/23 10:03:37;;;;;;;0.40;0.40;;;23.80;99.90;;;;;;4988391;28;20506;-85
2021/03/23 10:06:11;;;;;;;0.10;0.10;;;22.70;98.80;;;;;;4989221;28;20019;-85
2021/03/23 10:08:37;;;;;;;0.63;0.38;;;25.10;96.40;;;;;;4988376;28;20104;-85
2021/03/23 10:11:12;;;;;;;0.25;0.25;;;22.90;99.10;;;;;;4988943;28;20019;-85
2021/03/23 10:13:44;;;;;;;1.15;0.32;;;24.90;96.90;;;;;;4987110;28;20023;-85
2021/03/23 10:16:25;;;;;;;1.88;0.63;;;25.30;96.80;;;;;;4988854;28;20042;-85
2021/03/23 10:18:51;;;;;;;0.25;0.25;;;24.30;96.80;;;;;;4988745;28;20110;-84
2021/03/23 10:21:17;;;;;;;12.05;2.15;;;24.60;98.40;;;;;;4988806;28;20495;-85
2021/03/23 10:23:48;;;;;;;4.25;0.40;;;24.70;98.70;;;;;;4986973;28;20026;-85
2021/03/23 10:26:14;;;;;;;0.40;0.40;;;25.00;94.60;;;;;;4989228;28;20394;-85
2021/03/23 10:28:48;;;;;;;0.38;0.38;;;25.20;94.70;;;;;;4990676;28;20036;-85
2021/03/23 10:31:15;;;;;;;0.08;0.08;;;26.50;94.90;;;;;;4992718;28;20026;-86
2021/03/23 10:33:42;;;;;;;0.20;0.20;;;25.50;95.20;;;;;;4992328;28;20033;-86
2021/03/23 10:36:16;;;;;;;0.15;0.15;;;25.20;95.90;;;;;;4991426;28;20161;-86
2021/03/23 10:38:47;;;;;;;5.18;0.90;;;25.30;94.40;;;;;;4990873;28;20653;-86
2021/03/23 10:41:19;;;;;;;0.32;0.32;;;26.30;92.60;;;;;;4992547;28;20015;-85
2021/03/23 10:43:50;;;;;;;0.10;0.10;;;27.70;92.90;;;;;;4992507;28;20029;-85
2021/03/23 10:46:32;;;;;;;0.20;0.20;;;25.70;93.50;;;;;;4992372;28;20684;-85
2021/03/23 10:49:20;;;;;;;0.20;0.20;;;24.50;94.40;;;;;;5002367;28;20026;-85
2021/03/23 10:51:49;;;;;;;0.20;0.20;;;24.40;95.60;;;;;;4992893;28;20118;-85
2021/03/23 10:54:29;;;;;;;0.52;0.52;;;25.00;94.40;;;;;;5002334;28;20554;-85
2021/03/23 10:57:23;;;;;;;0.15;0.15;;;26.10;92.80;;;;;;4992902;28;20030;-85
2021/03/23 10:59:49;;;;;;;0.93;0.63;;;26.20;91.90;;;;;;4991631;28;20034;-86
2021/03/23 11:02:15;;;;;;;0.20;0.20;;;25.20;92.30;;;;;;4999068;28;20026;-86
2021/03/23 11:05:15;;;;;;;5.80;0.50;;;23.60;91.70;;;;;;4985679;28;20058;-86
2021/03/23 11:07:56;;;;;;;0.52;0.30;;;24.70;92.60;;;;;;4982141;28;20037;-86
2021/03/23 11:10:25;;;;;;;0.20;0.20;;;27.20;91.20;;;;;;4991888;28;20022;-86
2021/03/23 11:12:51;;;;;;;1.17;1.13;;;26.50;90.10;;;;;;4991736;28;20034;-87
2021/03/23 11:15:18;;;;;;;0.85;0.65;;;25.30;92.00;;;;;;4992624;28;20026;-86
2021/03/23 11:17:47;;;;;;;0.82;0.73;;;23.00;92.90;;;;;;5002760;28;20034;-86
2021/03/23 11:20:38;;;;;;;2.10;1.45;;;23.00;94.60;;;;;;5005369;28;20026;-86
2021/03/23 11:23:21;;;;;;;1.00;0.57;;;24.60;94.10;;;;;;4991662;28;20082;-87
2021/03/23 11:25:46;;;;;;;0.10;0.10;;;25.20;92.60;;;;;;5003783;28;20101;-86
2021/03/23 11:28:17;;;;;;;0.10;0.10;;;24.10;91.50;;;;;;5002176;28;20109;-86
2021/03/23 11:30:43;;;;;;;0.43;0.40;;;26.40;91.80;;;;;;4992145;28;20026;-86
2021/03/23 11:33:14;;;;;;;0.47;0.47;;;25.60;92.80;;;;;;4991370;28;20439;-87
2021/03/23 11:35:45;;;;;;;0.30;0.30;;;21.40;97.60;;;;;;4989529;28;20038;-87
2021/03/23 11:38:11;;;;;;;0.10;0.10;;;20.30;97.80;;;;;;4990262;28;20076;-87
2021/03/23 11:40:37;;;;;;;1.15;1.05;;;22.70;97.10;;;;;;4990976;28;20037;-87
2021/03/23 11:43:04;;;;;;;0.10;0.10;;;23.90;95.30;;;;;;4998109;28;20026;-87
2021/03/23 11:45:37;;;;;;;1.77;0.40;;;17.10;97.80;;;;;;4996612;28;20077;-87
2021/03/23 11:48:11;;;;;;;0.20;0.20;;;14.80;99.90;;;;;;4991087;28;20510;-86
2021/03/23 11:50:38;;;;;;;0.25;0.20;;;14.40;99.90;;;;;;4991357;28;20041;-87
2021/03/23 11:53:04;;;;;;;0.20;0.20;;;14.30;99.90;;;;;;4991202;28;20073;-87
2021/03/23 11:55:33;;;;;;;0.80;0.40;;;13.90;99.90;;;;;;4984345;28;20141;-87
2021/03/23 11:57:59;;;;;;;0.10;0.10;;;14.40;99.90;;;;;;4985426;28;20104;-86
2021/03/23 12:00:28;;;;;;;0.13;0.13;;;14.40;99.90;;;;;;4990199;28;20701;-86
2021/03/23 12:02:54;;;;;;;0.28;0.28;;;14.10;99.90;;;;;;4989415;28;20088;-86
2021/03/23 12:05:20;;;;;;;0.25;0.13;;;13.80;99.90;;;;;;4989672;28;20027;-87
2021/03/23 12:08:11;;;;;;;10.50;0.52;;;13.40;99.90;;;;;;4988771;28;20530;-87
2021/03/23 12:11:02;;;;;;;0.75;0.75;;;14.00;99.90;;;;;;4991046;28;20038;-86
2021/03/23 12:13:47;;;;;;;0.20;0.20;;;14.10;99.90;;;;;;4989571;28;20619;-86
2021/03/23 12:16:26;;;;;;;0.00;0.00;;;13.60;99.90;;;;;;4990872;28;20185;-85
2021/03/23 12:19:02;;;;;;;4.53;0.17;;;13.80;99.90;;;;;;4988692;28;20033;-84
2021/03/23 12:21:29;;;;;;;0.17;0.17;;;14.30;99.90;;;;;;4990582;28;20105;-85
2021/03/23 12:23:55;;;;;;;0.10;0.10;;;14.70;99.90;;;;;;4988847;28;20026;-85
2021/03/23 12:26:21;;;;;;;0.20;0.20;;;14.70;99.90;;;;;;4990570;28;20761;-86
2021/03/23 12:28:48;;;;;;;0.88;0.32;;;14.10;99.90;;;;;;4989743;28;20285;-85
2021/03/23 12:31:14;;;;;;;0.00;0.00;;;14.40;99.90;;;;;;4990572;28;20034;-85
2021/03/23 12:33:40;;;;;;;0.28;0.28;;;14.30;99.90;;;;;;4990421;28;20270;-85
2021/03/23 12:36:07;;;;;;;0.13;0.13;;;14.50;99.90;;;;;;4988802;28;20030;-85
2021/03/23 12:38:36;;;;;;;0.30;0.30;;;14.30;99.90;;;;;;4990293;28;20395;-86
2021/03/23 12:41:02;;;;;;;2.08;1.60;;;14.50;99.90;;;;;;4990036;28;20033;-85
2021/03/23 12:43:28;;;;;;;0.40;0.35;;;14.50;99.90;;;;;;4989147;28;20022;-86
2021/03/23 12:45:56;;;;;;;0.13;0.13;;;14.20;99.90;;;;;;4990139;28;20033;-86
2021/03/23 12:48:24;;;;;;;0.85;0.55;;;14.00;99.90;;;;;;4989950;28;20022;-86
2021/03/23 12:50:52;;;;;;;0.63;0.63;;;14.10;99.90;;;;;;4989525;28;20121;-84
2021/03/23 12:53:20;;;;;;;0.10;0.10;;;14.40;99.90;;;;;;4989770;28;20446;-85
2021/03/23 12:55:54;;;;;;;0.10;0.10;;;14.30;99.90;;;;;;4989823;28;20031;-85
2021/03/23 12:58:29;;;;;;;0.25;0.25;;;14.50;99.90;;;;;;4990420;28;20026;-85
2021/03/23 13:00:55;;;;;;;13.75;0.90;;;14.40;99.90;;;;;;4988849;28;20701;-85
2021/03/23 13:03:21;;;;;;;0.98;0.75;;;14.40;99.90;;;;;;4989989;28;20026;-85
2021/03/23 13:05:51;;;;;;;0.30;0.30;;;14.60;99.90;;;;;;4990027;28;20042;-85
2021/03/23 13:08:25;;;;;;;0.10;0.10;;;14.40;99.90;;;;;;4990431;28;20069;-84
2021/03/23 13:14:27;;;;;;;0.10;0.10;;;14.60;99.90;;;;;;4977615;28;20029;-85
2021/03/23 13:16:54;;;;;;;4.03;0.47;;;14.50;99.90;;;;;;4988949;28;20069;-85
2021/03/23 13:19:21;;;;;;;6.43;0.90;;;14.50;99.90;;;;;;4989769;28;20454;-85
2021/03/23 13:21:59;;;;;;;0.10;0.10;;;14.50;99.90;;;;;;4989234;28;20121;-84